createdAt,value
2019-04-01T00:02:06.563Z,97827.94
2019-04-01T00:04:33.193Z,97828.75
2019-04-01T00:06:59.718Z,97826.58
2019-04-01T00:09:26.339Z,97825.77
2019-04-01T00:11:52.986Z,97828.18
2019-04-01T00:14:19.609Z,97828.70
2019-04-01T00:16:46.331Z,97827.64
2019-04-01T00:19:12.929Z,97826.00
2019-04-01T00:21:39.482Z,97826.80
2019-04-01T00:24:06.025Z,97825.44
2019-04-01T00:26:32.639Z,97821.35
2019-04-01T00:28:59.166Z,97821.59
2019-04-01T00:31:25.851Z,97824.80
2019-04-01T00:33:52.371Z,97817.76
2019-04-01T00:36:18.993Z,97821.83
2019-04-01T00:38:45.729Z,97824.56
2019-04-01T00:41:12.358Z,97818.84
2019-04-01T00:43:58.678Z,97823.45
2019-04-01T00:46:25.531Z,97823.98
2019-04-01T00:48:52.055Z,97817.47
2019-04-01T00:51:18.617Z,97824.50
2019-04-01T00:53:45.252Z,97825.30
2019-04-01T00:56:12.141Z,97819.61
2019-04-01T00:58:38.761Z,97822.56
2019-04-01T01:01:05.391Z,97822.30
2019-04-01T01:03:31.907Z,97817.14
2019-04-01T01:05:58.443Z,97818.48
2019-04-01T01:08:25.114Z,97818.23
2019-04-01T01:10:51.861Z,97815.50
2019-04-01T01:13:18.449Z,97820.38
2019-04-01T01:15:45.064Z,97812.78
2019-04-01T01:18:11.727Z,97808.95
2019-04-01T01:20:38.340Z,97810.57
2019-04-01T01:23:04.888Z,97810.82
2019-04-01T01:25:31.646Z,97806.73
2019-04-01T01:27:58.277Z,97806.20
2019-04-01T01:30:24.893Z,97807.80
2019-04-01T01:32:51.475Z,97805.91
2019-04-01T01:35:18.081Z,97805.63
2019-04-01T01:37:44.668Z,97799.69
2019-04-01T01:40:13.904Z,97806.45
2019-04-01T01:42:40.461Z,97803.73
2019-04-01T01:45:07.107Z,97797.23
2019-04-01T01:47:33.695Z,97800.46
2019-04-01T01:50:00.383Z,97801.55
2019-04-01T01:52:27.049Z,97792.35
2019-04-01T01:54:53.581Z,97797.77
2019-04-01T01:57:20.217Z,97795.07
2019-04-01T01:59:46.751Z,97796.16
2019-04-01T02:02:13.297Z,97794.78
2019-04-01T02:04:39.832Z,97798.56
2019-04-01T02:07:06.460Z,97798.55
2019-04-01T02:09:32.991Z,97795.02
2019-04-01T02:11:59.919Z,97794.20
2019-04-01T02:14:26.882Z,97790.37
2019-04-01T02:16:53.411Z,97796.88
2019-04-01T02:19:20.000Z,97794.16
2019-04-01T02:21:46.514Z,97791.99
2019-04-01T02:24:13.175Z,97796.05
2019-04-01T02:26:39.698Z,97799.58
2019-04-01T02:29:06.421Z,97798.77
2019-04-01T02:31:33.056Z,97799.84
2019-04-01T02:33:59.581Z,97796.86
2019-04-01T02:36:26.116Z,97797.09
2019-04-01T02:38:52.773Z,97795.47
2019-04-01T02:41:19.397Z,97793.33
2019-04-01T02:43:46.079Z,97799.27
2019-04-01T02:46:12.838Z,97796.54
2019-04-01T02:48:39.361Z,97794.91
2019-04-01T02:51:06.007Z,97794.34
2019-04-01T02:53:32.683Z,97797.86
2019-04-01T02:55:59.475Z,97798.64
2019-04-01T02:58:25.996Z,97805.69
2019-04-01T03:00:52.553Z,97802.98
2019-04-01T03:03:19.080Z,97799.45
2019-04-01T03:05:45.615Z,97803.49
2019-04-01T03:08:12.280Z,97808.35
2019-04-01T03:10:38.806Z,97799.69
2019-04-01T03:13:05.445Z,97806.44
2019-04-01T03:15:32.318Z,97801.82
2019-04-01T03:17:58.989Z,97803.17
2019-04-01T03:20:25.518Z,97792.89
2019-04-01T03:22:52.158Z,97797.22
2019-04-01T03:25:18.897Z,97796.40
2019-04-01T03:27:45.415Z,97795.58
2019-04-01T03:30:12.239Z,97792.58
2019-04-01T03:32:44.742Z,97792.30
2019-04-01T03:35:07.734Z,97789.59
2019-04-01T03:37:34.367Z,97793.89
2019-04-01T03:40:00.893Z,97791.70
2019-04-01T03:42:28.629Z,97790.86
2019-04-01T03:44:55.680Z,97792.21
2019-04-01T03:47:22.416Z,97789.48
2019-04-01T03:49:48.971Z,97787.03
2019-04-01T03:52:15.723Z,97790.00
2019-04-01T03:54:42.280Z,97786.48
2019-04-01T03:57:09.145Z,97791.08
2019-04-01T03:59:36.057Z,97785.11
2019-04-01T04:02:15.431Z,97792.16
2019-04-01T04:04:42.134Z,97784.02
2019-04-01T04:07:11.052Z,97780.22
2019-04-01T04:09:40.664Z,97776.67
2019-04-01T04:12:07.513Z,97783.97
2019-04-01T04:14:34.054Z,97787.49
2019-04-01T04:17:00.792Z,97790.20
2019-04-01T04:19:27.345Z,97786.66
2019-04-01T04:21:54.057Z,97797.48
2019-04-01T04:24:20.834Z,97793.67
2019-04-01T04:26:47.483Z,97790.95
2019-04-01T04:29:14.201Z,97796.89
2019-04-01T04:31:40.960Z,97807.16
2019-04-01T04:34:07.657Z,97802.30
2019-04-01T04:36:34.195Z,97802.28
2019-04-01T04:39:00.907Z,97794.72
2019-04-01T04:41:27.448Z,97799.58
2019-04-01T04:43:54.013Z,97802.00
2019-04-01T04:46:21.301Z,97806.31
2019-04-01T04:48:48.093Z,97807.95
2019-04-01T04:51:14.936Z,97798.20
2019-04-01T04:53:41.494Z,97804.39
2019-04-01T04:56:08.129Z,97800.08
2019-04-01T04:58:34.680Z,97809.02
2019-04-01T05:01:02.146Z,97812.00
2019-04-01T05:03:29.508Z,97812.80
2019-04-01T05:05:56.642Z,97816.31
2019-04-01T05:08:23.871Z,97817.11
2019-04-01T05:10:51.107Z,97818.45
2019-04-01T05:13:18.150Z,97811.16
2019-04-01T05:15:44.805Z,97809.25
2019-04-01T05:18:11.325Z,97820.86
2019-04-01T05:20:38.038Z,97820.61
2019-04-01T05:23:04.671Z,97801.29
2019-04-01T05:25:31.984Z,97820.35
2019-04-01T05:28:00.630Z,97824.13
2019-04-01T05:30:29.096Z,97822.23
2019-04-01T05:32:57.153Z,97827.64
2019-04-01T05:35:23.773Z,97830.34
2019-04-01T05:37:50.646Z,97826.30
2019-04-01T05:40:17.264Z,97827.66
2019-04-01T05:42:44.129Z,97830.36
2019-04-01T05:45:10.777Z,97834.41
2019-04-01T05:47:42.954Z,97832.52
2019-04-01T05:50:09.858Z,97827.42
2019-04-01T05:52:36.818Z,97832.57
2019-04-01T05:55:04.327Z,97835.30
2019-04-01T05:57:30.953Z,97833.41
2019-04-01T05:59:59.731Z,97845.36
2019-04-01T06:02:26.379Z,97832.42
2019-04-01T06:04:53.073Z,97832.70
2019-04-01T06:07:19.721Z,97838.64
2019-04-01T06:09:46.366Z,97837.03
2019-04-01T06:12:13.103Z,97839.97
2019-04-01T06:14:39.810Z,97845.69
2019-04-01T06:17:06.560Z,97831.93
2019-04-01T06:19:33.249Z,97838.43
2019-04-01T06:21:59.863Z,97833.06
2019-04-01T06:24:26.542Z,97830.13
2019-04-01T06:26:53.265Z,97825.30
2019-04-01T06:29:19.895Z,97834.02
2019-04-01T06:31:46.518Z,97835.41
2019-04-01T06:34:15.480Z,97834.91
2019-04-01T06:36:42.109Z,97832.24
2019-04-01T06:39:08.791Z,97833.91
2019-04-01T06:41:35.413Z,97834.48
2019-04-01T06:44:02.287Z,97830.71
2019-04-01T06:46:28.951Z,97836.19
2019-04-01T06:48:55.752Z,97838.67
2019-04-01T06:51:22.372Z,97842.47
2019-04-01T06:53:48.899Z,97838.16
2019-04-01T06:56:15.553Z,97828.73
2019-04-01T06:58:42.184Z,97835.81
2019-04-01T07:01:08.926Z,97841.52
2019-04-01T07:03:35.564Z,97836.40
2019-04-01T07:06:02.355Z,97838.88
2019-04-01T07:08:28.989Z,97844.05
2019-04-01T07:10:55.663Z,97835.65
2019-04-01T07:13:22.368Z,97834.36
2019-04-01T07:15:49.025Z,97838.18
2019-04-01T07:18:15.644Z,97827.09
2019-04-01T07:20:42.322Z,97836.59
2019-04-01T07:23:09.112Z,97836.89
2019-04-01T07:25:35.812Z,97835.80
2019-04-01T07:28:02.628Z,97835.55
2019-04-01T07:30:29.313Z,97830.65
2019-04-01T07:32:58.614Z,97832.56
2019-04-01T07:35:25.262Z,97836.34
2019-04-01T07:37:51.921Z,97829.27
2019-04-01T07:40:18.567Z,97832.22
2019-04-01T07:42:45.207Z,97833.83
2019-04-01T07:45:11.970Z,97843.03
2019-04-01T07:47:38.658Z,97841.06
2019-04-01T07:50:05.501Z,97842.03
2019-04-01T07:52:32.175Z,97835.97
2019-04-01T07:54:59.321Z,97832.05
2019-04-01T07:57:25.984Z,97837.63
2019-04-01T07:59:52.615Z,97836.87
2019-04-01T08:02:19.256Z,97833.98
2019-04-01T08:04:45.914Z,97833.52
2019-04-01T08:07:13.496Z,97838.65
2019-04-01T08:09:40.511Z,97833.94
2019-04-01T08:12:07.135Z,97833.45
2019-04-01T08:14:33.785Z,97832.09
2019-04-01T08:17:00.633Z,97836.58
2019-04-01T08:19:27.268Z,97829.90
2019-04-01T08:21:54.143Z,97828.57
2019-04-01T08:24:20.774Z,97829.97
2019-04-01T08:26:47.485Z,97827.75
2019-04-01T08:29:28.967Z,97823.36
2019-04-01T08:31:42.594Z,97825.03
2019-04-01T08:34:09.432Z,97827.80
2019-04-01T08:36:36.048Z,97828.44
2019-04-01T08:39:07.638Z,97823.94
2019-04-01T08:41:34.376Z,97825.38
2019-04-01T08:44:03.210Z,97831.20
2019-04-01T08:46:29.495Z,97824.81
2019-04-01T08:48:56.235Z,97824.02
2019-04-01T08:51:22.861Z,97827.31
2019-04-01T08:53:49.537Z,97822.08
2019-04-01T19:01:47.389Z,97457.93
2019-04-01T19:04:14.008Z,97451.89
2019-04-01T19:06:40.680Z,97462.31
2019-04-01T19:09:09.336Z,97464.78
2019-04-01T19:11:36.147Z,97467.25
2019-04-01T19:14:03.466Z,97461.03
2019-04-01T19:16:30.485Z,97463.02
2019-04-01T19:18:57.319Z,97465.22
2019-04-01T19:21:24.397Z,97464.77
2019-04-01T19:23:53.358Z,97468.12
2019-04-01T19:26:23.417Z,97472.53
2019-04-01T19:28:53.762Z,97478.86
2019-04-01T19:31:20.565Z,97484.60
2019-04-01T19:33:47.203Z,97485.45
2019-04-01T19:36:15.116Z,97480.38
2019-04-01T19:38:41.859Z,97483.98
2019-04-01T19:43:58.392Z,97480.25
2019-04-01T19:46:25.092Z,97479.79
2019-04-01T19:48:51.842Z,97477.39
2019-04-01T19:51:19.503Z,97484.52
2019-04-01T19:53:46.251Z,97477.48
2019-04-01T19:56:13.009Z,97481.59
2019-04-01T19:58:40.681Z,97471.59
2019-04-01T20:01:07.352Z,97478.17
2019-04-01T20:03:34.081Z,97480.11
2019-04-01T20:06:00.817Z,97481.17
2019-04-01T20:08:27.569Z,97479.38
2019-04-01T20:10:54.378Z,97479.17
2019-04-01T20:13:21.190Z,97478.91
2019-04-01T20:15:48.955Z,97478.39
2019-04-01T20:18:16.298Z,97475.74
2019-04-01T20:20:43.024Z,97483.67
2019-04-01T20:23:09.945Z,97479.64
2019-04-01T20:25:36.828Z,97486.23
2019-04-01T20:28:03.741Z,97486.80
2019-04-01T20:30:30.578Z,97481.41
2019-04-01T20:32:57.370Z,97475.45
2019-04-01T20:35:24.179Z,97476.33
2019-04-01T20:37:51.005Z,97475.01
2019-04-01T20:40:18.889Z,97473.17
2019-04-01T20:42:46.566Z,97472.38
2019-04-01T20:45:13.900Z,97471.02
2019-04-01T20:47:40.675Z,97470.21
2019-04-01T20:50:08.791Z,97473.80
2019-04-01T20:52:35.547Z,97477.09
2019-04-01T20:55:02.779Z,97472.73
2019-04-01T20:57:29.633Z,97474.98
2019-04-01T20:59:56.500Z,97470.39
2019-04-01T21:02:23.307Z,97465.26
2019-04-01T21:04:52.259Z,97461.75
2019-04-01T21:07:19.108Z,97463.67
2019-04-01T21:09:47.685Z,97462.87
2019-04-01T21:12:14.422Z,97461.54
2019-04-01T21:14:43.125Z,97459.67
2019-04-01T21:17:10.784Z,97463.81
2019-04-01T21:19:37.694Z,97462.22
2019-04-01T21:22:04.354Z,97468.73
2019-04-01T21:24:31.042Z,97463.61
2019-04-01T21:26:57.765Z,97467.99
2019-04-01T21:29:24.511Z,97459.05
2019-04-01T21:31:54.282Z,97465.03
2019-04-01T21:34:24.047Z,97457.22
2019-04-01T21:36:51.766Z,97459.68
2019-04-01T21:39:18.372Z,97456.18
2019-04-01T21:41:46.265Z,97462.99
2019-04-01T21:44:14.199Z,97453.28
2019-04-01T21:46:41.130Z,97453.02
2019-04-01T21:49:08.075Z,97462.55
2019-04-01T21:51:35.805Z,97451.97
2019-04-01T21:54:02.581Z,97445.75
2019-04-01T21:56:29.292Z,97450.66
2019-04-01T21:58:56.080Z,97446.32
2019-04-01T22:01:22.894Z,97440.89
2019-04-01T22:03:49.568Z,97443.34
2019-04-01T22:06:16.228Z,97443.13
2019-04-01T22:08:42.909Z,97442.86
2019-04-01T22:11:09.516Z,97440.43
2019-04-01T22:13:36.169Z,97440.45
2019-04-01T22:16:02.904Z,97438.84
2019-04-01T22:18:29.592Z,97440.76
2019-04-01T22:20:56.294Z,97437.78
2019-04-01T22:23:23.039Z,97432.67
2019-04-01T22:25:49.924Z,97435.39
2019-04-01T22:28:16.570Z,97429.98
2019-04-01T22:30:43.238Z,97431.61
2019-04-01T22:33:11.602Z,97424.03
2019-04-01T22:35:39.362Z,97431.87
2019-04-01T22:38:06.880Z,97433.78
2019-04-01T22:40:33.684Z,97430.02
2019-04-01T22:43:00.520Z,97429.20
2019-04-01T22:45:27.312Z,97425.68
2019-04-01T22:47:54.128Z,97422.45
2019-04-01T22:50:20.973Z,97424.61
2019-04-01T22:52:47.710Z,97422.72
2019-04-01T22:55:14.376Z,97419.48
2019-04-01T22:57:41.063Z,97416.50
2019-04-01T23:00:08.002Z,97415.15
2019-04-01T23:02:34.682Z,97413.28
2019-04-01T23:05:01.526Z,97408.69
2019-04-01T23:07:29.312Z,97413.56
2019-04-01T23:09:55.900Z,97413.30
2019-04-01T23:12:22.789Z,97411.13
2019-04-01T23:14:49.508Z,97398.94
2019-04-01T23:17:16.346Z,97400.84
2019-04-01T23:19:42.992Z,97397.05
2019-04-01T23:22:09.796Z,97390.31
2019-04-01T23:24:36.452Z,97393.02
2019-04-01T23:27:03.282Z,97391.12
2019-04-01T23:29:29.858Z,97387.88
2019-04-01T23:31:56.500Z,97390.05
2019-04-01T23:34:23.304Z,97382.73
2019-04-01T23:36:50.112Z,97391.12
2019-04-01T23:39:16.858Z,97385.17
2019-04-01T23:41:43.521Z,97388.69
2019-04-01T23:44:10.753Z,97389.23
2019-04-01T23:46:37.431Z,97384.12
2019-04-01T23:49:04.596Z,97384.66
2019-04-01T23:51:31.192Z,97377.08
2019-04-01T23:53:57.794Z,97378.97
2019-04-01T23:56:24.450Z,97382.77
2019-04-01T23:58:51.567Z,97370.58
